sensor_id;sensor_type;location;lat;lon;timestamp;pressure;altitude;pressure_sealevel;temperature;humidity
12636;BME280;6383;50.830;7.210;2023-05-09T00:00:04;101059.41;;;19.18;74.86
12636;BME280;6383;50.830;7.210;2023-05-09T00:02:37;101051.94;;;19.19;74.99
12636;BME280;6383;50.830;7.210;2023-05-09T00:05:05;101045.16;;;19.16;74.88
12636;BME280;6383;50.830;7.210;2023-05-09T00:07:35;101043.13;;;19.13;74.48
12636;BME280;6383;50.830;7.210;2023-05-09T00:10:06;101044.16;;;19.09;74.90
12636;BME280;6383;50.830;7.210;2023-05-09T00:12:35;101037.03;;;19.08;74.85
12636;BME280;6383;50.830;7.210;2023-05-09T00:15:04;101034.59;;;19.06;74.81
12636;BME280;6383;50.830;7.210;2023-05-09T00:17:35;101033.34;;;19.03;74.75
12636;BME280;6383;50.830;7.210;2023-05-09T00:20:06;101041.16;;;19.01;75.28
12636;BME280;6383;50.830;7.210;2023-05-09T00:22:37;101047.81;;;19.00;75.11
12636;BME280;6383;50.830;7.210;2023-05-09T00:25:10;101044.25;;;19.00;75.23
12636;BME280;6383;50.830;7.210;2023-05-09T00:27:39;101033.22;;;19.00;75.46
12636;BME280;6383;50.830;7.210;2023-05-09T00:30:07;101034.41;;;18.99;75.38
12636;BME280;6383;50.830;7.210;2023-05-09T00:32:35;101021.38;;;18.99;75.61
12636;BME280;6383;50.830;7.210;2023-05-09T00:35:05;101024.13;;;18.99;75.20
12636;BME280;6383;50.830;7.210;2023-05-09T00:37:35;101015.09;;;18.99;75.16
12636;BME280;6383;50.830;7.210;2023-05-09T00:40:05;101017.03;;;18.98;75.33
12636;BME280;6383;50.830;7.210;2023-05-09T00:42:36;101003.25;;;18.98;75.32
12636;BME280;6383;50.830;7.210;2023-05-09T00:45:06;101013.81;;;18.96;75.16
12636;BME280;6383;50.830;7.210;2023-05-09T00:47:35;101011.41;;;18.95;75.40
12636;BME280;6383;50.830;7.210;2023-05-09T00:50:06;101005.41;;;18.93;75.29
12636;BME280;6383;50.830;7.210;2023-05-09T00:52:35;101004.16;;;18.90;75.46
12636;BME280;6383;50.830;7.210;2023-05-09T00:55:06;100995.41;;;18.88;75.25
12636;BME280;6383;50.830;7.210;2023-05-09T00:57:36;100984.72;;;18.87;75.43
12636;BME280;6383;50.830;7.210;2023-05-09T01:00:07;100989.34;;;18.83;75.12
12636;BME280;6383;50.830;7.210;2023-05-09T01:02:40;100975.91;;;18.81;75.64
12636;BME280;6383;50.830;7.210;2023-05-09T01:05:10;100986.25;;;18.84;75.40
12636;BME280;6383;50.830;7.210;2023-05-09T01:07:45;100984.25;;;18.85;75.67
12636;BME280;6383;50.830;7.210;2023-05-09T01:10:22;100990.97;;;18.84;74.99
12636;BME280;6383;50.830;7.210;2023-05-09T01:13:03;100984.97;;;18.82;75.30
12636;BME280;6383;50.830;7.210;2023-05-09T01:15:36;100973.50;;;18.80;75.37
12636;BME280;6383;50.830;7.210;2023-05-09T01:18:11;100976.94;;;18.77;75.15
12636;BME280;6383;50.830;7.210;2023-05-09T01:20:46;100976.81;;;18.73;75.36
12636;BME280;6383;50.830;7.210;2023-05-09T01:23:49;100972.78;;;18.71;75.31
12636;BME280;6383;50.830;7.210;2023-05-09T01:26:26;100977.16;;;18.72;75.52
12636;BME280;6383;50.830;7.210;2023-05-09T01:29:33;100968.19;;;18.75;75.64
12636;BME280;6383;50.830;7.210;2023-05-09T01:32:06;100973.38;;;18.76;75.66
12636;BME280;6383;50.830;7.210;2023-05-09T01:34:36;100966.25;;;18.75;74.96
12636;BME280;6383;50.830;7.210;2023-05-09T01:37:06;100964.97;;;18.73;75.29
12636;BME280;6383;50.830;7.210;2023-05-09T01:39:37;100955.91;;;18.72;75.13
12636;BME280;6383;50.830;7.210;2023-05-09T01:42:08;100956.59;;;18.69;75.24
12636;BME280;6383;50.830;7.210;2023-05-09T01:44:40;100955.81;;;18.69;75.40
12636;BME280;6383;50.830;7.210;2023-05-09T01:47:10;100949.81;;;18.66;74.91
12636;BME280;6383;50.830;7.210;2023-05-09T01:49:40;100942.72;;;18.65;75.46
12636;BME280;6383;50.830;7.210;2023-05-09T01:52:12;100937.66;;;18.67;75.64
12636;BME280;6383;50.830;7.210;2023-05-09T01:54:43;100949.16;;;18.70;75.53
12636;BME280;6383;50.830;7.210;2023-05-09T01:57:13;100946.00;;;18.71;75.25
12636;BME280;6383;50.830;7.210;2023-05-09T01:59:45;100955.22;;;18.75;75.20
12636;BME280;6383;50.830;7.210;2023-05-09T02:02:19;100939.47;;;18.76;75.11
12636;BME280;6383;50.830;7.210;2023-05-09T02:04:49;100946.59;;;18.77;75.23
12636;BME280;6383;50.830;7.210;2023-05-09T02:07:18;100944.06;;;18.72;74.91
12636;BME280;6383;50.830;7.210;2023-05-09T02:09:48;100947.41;;;18.65;74.93
12636;BME280;6383;50.830;7.210;2023-05-09T02:12:18;100946.50;;;18.61;75.18
12636;BME280;6383;50.830;7.210;2023-05-09T02:14:49;100947.28;;;18.61;75.47
12636;BME280;6383;50.830;7.210;2023-05-09T02:17:18;100945.22;;;18.58;75.25
12636;BME280;6383;50.830;7.210;2023-05-09T02:19:48;100941.31;;;18.59;75.53
12636;BME280;6383;50.830;7.210;2023-05-09T02:22:17;100937.41;;;18.60;75.45
12636;BME280;6383;50.830;7.210;2023-05-09T02:24:46;100943.38;;;18.62;75.36
12636;BME280;6383;50.830;7.210;2023-05-09T02:27:14;100946.16;;;18.62;75.12
12636;BME280;6383;50.830;7.210;2023-05-09T02:29:46;100944.53;;;18.61;75.42
12636;BME280;6383;50.830;7.210;2023-05-09T02:32:19;100935.13;;;18.62;75.59
12636;BME280;6383;50.830;7.210;2023-05-09T02:34:50;100929.13;;;18.60;75.25
12636;BME280;6383;50.830;7.210;2023-05-09T02:37:20;100929.34;;;18.55;74.89
12636;BME280;6383;50.830;7.210;2023-05-09T02:39:50;100932.34;;;18.50;75.70
12636;BME280;6383;50.830;7.210;2023-05-09T02:42:21;100929.91;;;18.49;75.61
12636;BME280;6383;50.830;7.210;2023-05-09T02:44:51;100933.16;;;18.51;75.57
12636;BME280;6383;50.830;7.210;2023-05-09T02:47:20;100925.34;;;18.53;75.80
12636;BME280;6383;50.830;7.210;2023-05-09T02:49:49;100928.91;;;18.53;75.58
12636;BME280;6383;50.830;7.210;2023-05-09T02:52:18;100916.25;;;18.52;75.76
12636;BME280;6383;50.830;7.210;2023-05-09T02:54:46;100918.31;;;18.55;75.73
12636;BME280;6383;50.830;7.210;2023-05-09T02:57:14;100909.25;;;18.55;75.63
12636;BME280;6383;50.830;7.210;2023-05-09T02:59:43;100911.56;;;18.53;75.75
12636;BME280;6383;50.830;7.210;2023-05-09T03:02:11;100911.44;;;18.49;75.94
12636;BME280;6383;50.830;7.210;2023-05-09T03:04:42;100911.09;;;18.51;76.08
12636;BME280;6383;50.830;7.210;2023-05-09T03:07:11;100908.00;;;18.52;75.74
12636;BME280;6383;50.830;7.210;2023-05-09T03:09:39;100912.34;;;18.53;75.88
12636;BME280;6383;50.830;7.210;2023-05-09T03:12:08;100910.75;;;18.52;76.03
12636;BME280;6383;50.830;7.210;2023-05-09T03:14:35;100903.75;;;18.55;75.84
12636;BME280;6383;50.830;7.210;2023-05-09T03:17:04;100906.03;;;18.53;75.74
12636;BME280;6383;50.830;7.210;2023-05-09T03:19:32;100903.75;;;18.55;75.86
12636;BME280;6383;50.830;7.210;2023-05-09T03:22:02;100901.00;;;18.55;75.60
12636;BME280;6383;50.830;7.210;2023-05-09T03:24:30;100893.06;;;18.53;75.82
12636;BME280;6383;50.830;7.210;2023-05-09T03:26:58;100883.19;;;18.52;75.95
12636;BME280;6383;50.830;7.210;2023-05-09T03:29:25;100891.44;;;18.52;75.96
12636;BME280;6383;50.830;7.210;2023-05-09T03:31:54;100893.41;;;18.52;75.87
12636;BME280;6383;50.830;7.210;2023-05-09T03:34:23;100894.69;;;18.54;76.15
12636;BME280;6383;50.830;7.210;2023-05-09T03:36:52;100887.97;;;18.55;76.10
12636;BME280;6383;50.830;7.210;2023-05-09T03:39:23;100899.47;;;18.57;76.05
12636;BME280;6383;50.830;7.210;2023-05-09T03:41:52;100892.34;;;18.56;76.23
12636;BME280;6383;50.830;7.210;2023-05-09T03:44:19;100896.25;;;18.55;76.17
12636;BME280;6383;50.830;7.210;2023-05-09T03:46:48;100887.31;;;18.58;76.46
12636;BME280;6383;50.830;7.210;2023-05-09T03:49:17;100887.78;;;18.60;76.13
12636;BME280;6383;50.830;7.210;2023-05-09T03:51:46;100874.81;;;18.61;76.27
12636;BME280;6383;50.830;7.210;2023-05-09T03:54:15;100874.81;;;18.61;76.28
12636;BME280;6383;50.830;7.210;2023-05-09T03:56:45;100869.63;;;18.59;76.18
12636;BME280;6383;50.830;7.210;2023-05-09T03:59:14;100861.38;;;18.59;76.35
12636;BME280;6383;50.830;7.210;2023-05-09T04:01:41;100868.03;;;18.58;76.69
12636;BME280;6383;50.830;7.210;2023-05-09T04:04:10;100862.97;;;18.60;76.88
12636;BME280;6383;50.830;7.210;2023-05-09T04:06:38;100861.81;;;18.61;76.27
12636;BME280;6383;50.830;7.210;2023-05-09T04:09:06;100858.63;;;18.59;76.68
12636;BME280;6383;50.830;7.210;2023-05-09T04:11:35;100857.00;;;18.58;76.33
12636;BME280;6383;50.830;7.210;2023-05-09T04:14:05;100856.50;;;18.56;76.72
12636;BME280;6383;50.830;7.210;2023-05-09T04:16:33;100862.03;;;18.56;76.93
12636;BME280;6383;50.830;7.210;2023-05-09T04:19:02;100853.31;;;18.54;76.64
12636;BME280;6383;50.830;7.210;2023-05-09T04:21:31;100856.78;;;18.51;77.09
12636;BME280;6383;50.830;7.210;2023-05-09T04:24:00;100848.84;;;18.50;77.08
12636;BME280;6383;50.830;7.210;2023-05-09T04:26:29;100852.41;;;18.50;77.32
12636;BME280;6383;50.830;7.210;2023-05-09T04:28:58;100852.75;;;18.49;77.38
12636;BME280;6383;50.830;7.210;2023-05-09T04:31:27;100844.81;;;18.47;77.54
12636;BME280;6383;50.830;7.210;2023-05-09T04:33:57;100844.34;;;18.45;77.87
12636;BME280;6383;50.830;7.210;2023-05-09T04:36:26;100844.03;;;18.47;77.56
12636;BME280;6383;50.830;7.210;2023-05-09T04:38:53;100850.69;;;18.46;77.80
12636;BME280;6383;50.830;7.210;2023-05-09T04:41:21;100844.81;;;18.47;78.13
12636;BME280;6383;50.830;7.210;2023-05-09T04:43:50;100837.34;;;18.48;78.04
12636;BME280;6383;50.830;7.210;2023-05-09T04:46:20;100848.03;;;18.49;77.98
12636;BME280;6383;50.830;7.210;2023-05-09T04:48:50;100841.03;;;18.52;78.00
12636;BME280;6383;50.830;7.210;2023-05-09T04:51:19;100848.16;;;18.53;78.26
12636;BME280;6383;50.830;7.210;2023-05-09T04:53:46;100836.78;;;18.54;77.73
12636;BME280;6383;50.830;7.210;2023-05-09T04:56:15;100824.97;;;18.54;77.74
12636;BME280;6383;50.830;7.210;2023-05-09T04:58:44;100827.78;;;18.57;77.87
12636;BME280;6383;50.830;7.210;2023-05-09T05:01:14;100830.69;;;18.61;77.97
12636;BME280;6383;50.830;7.210;2023-05-09T05:03:43;100824.50;;;18.64;77.53
12636;BME280;6383;50.830;7.210;2023-05-09T05:06:14;100823.34;;;18.65;77.67
12636;BME280;6383;50.830;7.210;2023-05-09T05:08:42;100831.28;;;18.66;77.75
12636;BME280;6383;50.830;7.210;2023-05-09T05:11:10;100824.59;;;18.67;77.78
12636;BME280;6383;50.830;7.210;2023-05-09T05:13:40;100826.56;;;18.67;77.59
12636;BME280;6383;50.830;7.210;2023-05-09T05:16:09;100826.56;;;18.67;77.77
12636;BME280;6383;50.830;7.210;2023-05-09T05:18:36;100825.75;;;18.66;77.60
12636;BME280;6383;50.830;7.210;2023-05-09T05:21:05;100821.06;;;18.67;77.69
12636;BME280;6383;50.830;7.210;2023-05-09T05:23:36;100819.44;;;18.66;77.87
12636;BME280;6383;50.830;7.210;2023-05-09T05:26:03;100813.59;;;18.67;77.65
12636;BME280;6383;50.830;7.210;2023-05-09T05:28:32;100821.50;;;18.69;78.12
12636;BME280;6383;50.830;7.210;2023-05-09T05:31:00;100818.38;;;18.71;77.53
12636;BME280;6383;50.830;7.210;2023-05-09T05:33:29;100815.28;;;18.72;77.99
12636;BME280;6383;50.830;7.210;2023-05-09T05:35:59;100807.47;;;18.74;77.65
12636;BME280;6383;50.830;7.210;2023-05-09T05:38:28;100814.59;;;18.75;77.77
12636;BME280;6383;50.830;7.210;2023-05-09T05:40:58;100813.78;;;18.75;77.67
12636;BME280;6383;50.830;7.210;2023-05-09T05:43:27;100809.88;;;18.76;77.64
12636;BME280;6383;50.830;7.210;2023-05-09T05:45:56;100806.31;;;18.75;77.82
12636;BME280;6383;50.830;7.210;2023-05-09T05:48:25;100807.91;;;18.76;77.85
12636;BME280;6383;50.830;7.210;2023-05-09T05:50:52;100811.13;;;18.78;78.17
12636;BME280;6383;50.830;7.210;2023-05-09T05:53:21;100806.53;;;18.82;77.86
12636;BME280;6383;50.830;7.210;2023-05-09T05:55:50;100809.38;;;18.86;78.25
12636;BME280;6383;50.830;7.210;2023-05-09T05:58:23;100805.56;;;18.90;77.83
12636;BME280;6383;50.830;7.210;2023-05-09T06:00:56;100804.88;;;18.93;77.67
12636;BME280;6383;50.830;7.210;2023-05-09T06:03:23;100804.53;;;18.95;77.57
12636;BME280;6383;50.830;7.210;2023-05-09T06:05:53;100801.88;;;18.98;77.79
12636;BME280;6383;50.830;7.210;2023-05-09T06:08:22;100799.53;;;19.00;77.47
12636;BME280;6383;50.830;7.210;2023-05-09T06:10:51;100794.75;;;18.97;77.40
12636;BME280;6383;50.830;7.210;2023-05-09T06:13:20;100793.22;;;19.00;78.05
12636;BME280;6383;50.830;7.210;2023-05-09T06:15:54;100787.47;;;19.05;78.06
12636;BME280;6383;50.830;7.210;2023-05-09T06:18:22;100784.47;;;19.10;77.28
12636;BME280;6383;50.830;7.210;2023-05-09T06:20:50;100786.88;;;19.12;77.24
12636;BME280;6383;50.830;7.210;2023-05-09T06:23:17;100774.34;;;19.14;77.18
12636;BME280;6383;50.830;7.210;2023-05-09T06:25:49;100774.75;;;19.16;77.45
12636;BME280;6383;50.830;7.210;2023-05-09T06:28:18;100773.16;;;19.15;77.17
12636;BME280;6383;50.830;7.210;2023-05-09T06:30:46;100773.59;;;19.17;77.58
12636;BME280;6383;50.830;7.210;2023-05-09T06:33:16;100776.91;;;19.23;77.10
12636;BME280;6383;50.830;7.210;2023-05-09T06:35:45;100776.13;;;19.22;76.85
12636;BME280;6383;50.830;7.210;2023-05-09T06:38:13;100771.84;;;19.25;77.30
12636;BME280;6383;50.830;7.210;2023-05-09T06:40:41;100766.44;;;19.28;77.07
12636;BME280;6383;50.830;7.210;2023-05-09T06:43:10;100764.91;;;19.31;76.91
12636;BME280;6383;50.830;7.210;2023-05-09T06:45:39;100763.75;;;19.32;76.70
12636;BME280;6383;50.830;7.210;2023-05-09T06:48:08;100757.88;;;19.33;76.78
12636;BME280;6383;50.830;7.210;2023-05-09T06:50:38;100755.22;;;19.37;76.80
12636;BME280;6383;50.830;7.210;2023-05-09T06:53:06;100749.00;;;19.40;76.72
12636;BME280;6383;50.830;7.210;2023-05-09T06:55:35;100751.84;;;19.44;76.72
12636;BME280;6383;50.830;7.210;2023-05-09T06:58:03;100749.00;;;19.40;76.48
12636;BME280;6383;50.830;7.210;2023-05-09T07:00:32;100746.31;;;19.44;76.62
12636;BME280;6383;50.830;7.210;2023-05-09T07:03:00;100746.69;;;19.42;76.67
12636;BME280;6383;50.830;7.210;2023-05-09T07:05:29;100739.63;;;19.45;76.44
12636;BME280;6383;50.830;7.210;2023-05-09T07:07:59;100738.59;;;19.49;77.33
12636;BME280;6383;50.830;7.210;2023-05-09T07:10:28;100740.28;;;19.54;76.43
12636;BME280;6383;50.830;7.210;2023-05-09T07:12:57;100730.84;;;19.55;76.22
12636;BME280;6383;50.830;7.210;2023-05-09T07:15:26;100724.53;;;19.54;76.29
12636;BME280;6383;50.830;7.210;2023-05-09T07:17:55;100724.44;;;19.51;76.44
12636;BME280;6383;50.830;7.210;2023-05-09T07:20:23;100717.75;;;19.52;76.79
12636;BME280;6383;50.830;7.210;2023-05-09T07:22:52;100714.75;;;19.57;77.06
12636;BME280;6383;50.830;7.210;2023-05-09T07:25:22;100714.38;;;19.58;76.57
12636;BME280;6383;50.830;7.210;2023-05-09T07:27:50;100712.50;;;19.62;76.95
12636;BME280;6383;50.830;7.210;2023-05-09T07:30:19;100704.28;;;19.66;76.47
12636;BME280;6383;50.830;7.210;2023-05-09T07:32:46;100700.81;;;19.69;76.28
12636;BME280;6383;50.830;7.210;2023-05-09T07:35:15;100701.72;;;19.73;76.60
12636;BME280;6383;50.830;7.210;2023-05-09T07:37:43;100695.47;;;19.76;76.04
12636;BME280;6383;50.830;7.210;2023-05-09T07:40:12;100701.50;;;19.82;75.91
12636;BME280;6383;50.830;7.210;2023-05-09T07:42:43;100697.31;;;19.88;75.66
12636;BME280;6383;50.830;7.210;2023-05-09T07:45:16;100698.28;;;19.95;75.73
12636;BME280;6383;50.830;7.210;2023-05-09T07:47:45;100688.63;;;20.05;76.15
12636;BME280;6383;50.830;7.210;2023-05-09T07:50:14;100689.50;;;20.09;74.63
12636;BME280;6383;50.830;7.210;2023-05-09T07:52:44;100694.41;;;20.16;74.75
12636;BME280;6383;50.830;7.210;2023-05-09T07:55:13;100690.16;;;20.22;73.05
12636;BME280;6383;50.830;7.210;2023-05-09T07:57:44;100688.72;;;20.28;74.25
12636;BME280;6383;50.830;7.210;2023-05-09T08:00:14;100683.28;;;20.31;72.69
12636;BME280;6383;50.830;7.210;2023-05-09T08:02:42;100689.63;;;20.32;70.04
12636;BME280;6383;50.830;7.210;2023-05-09T08:05:11;100678.56;;;20.32;71.22
12636;BME280;6383;50.830;7.210;2023-05-09T08:07:39;100677.81;;;20.35;70.14
12636;BME280;6383;50.830;7.210;2023-05-09T08:10:08;100668.03;;;20.37;69.24
12636;BME280;6383;50.830;7.210;2023-05-09T08:12:37;100669.25;;;20.40;69.57
12636;BME280;6383;50.830;7.210;2023-05-09T08:15:08;100668.81;;;20.38;68.18
12636;BME280;6383;50.830;7.210;2023-05-09T08:17:37;100660.88;;;20.36;68.26
12636;BME280;6383;50.830;7.210;2023-05-09T08:20:06;100659.00;;;20.40;69.57
12636;BME280;6383;50.830;7.210;2023-05-09T08:22:33;100660.69;;;20.45;68.55
12636;BME280;6383;50.830;7.210;2023-05-09T08:25:00;100651.72;;;20.52;67.38
12636;BME280;6383;50.830;7.210;2023-05-09T08:27:30;100645.53;;;20.58;68.13
12636;BME280;6383;50.830;7.210;2023-05-09T08:29:59;100641.28;;;20.64;68.49
12636;BME280;6383;50.830;7.210;2023-05-09T08:32:29;100637.06;;;20.70;67.94
12636;BME280;6383;50.830;7.210;2023-05-09T08:34:58;100626.91;;;20.78;66.11
12636;BME280;6383;50.830;7.210;2023-05-09T08:37:27;100630.19;;;20.84;65.44
12636;BME280;6383;50.830;7.210;2023-05-09T08:39:56;100625.97;;;20.90;65.60
12636;BME280;6383;50.830;7.210;2023-05-09T08:42:26;100633.22;;;20.98;65.33
12636;BME280;6383;50.830;7.210;2023-05-09T08:44:55;100626.25;;;21.07;65.41
12636;BME280;6383;50.830;7.210;2023-05-09T08:47:25;100623.63;;;21.15;65.21
12636;BME280;6383;50.830;7.210;2023-05-09T08:49:55;100611.81;;;21.18;64.68
12636;BME280;6383;50.830;7.210;2023-05-09T08:52:24;100612.28;;;21.20;63.00
12636;BME280;6383;50.830;7.210;2023-05-09T08:54:52;100602.00;;;21.20;62.76
12636;BME280;6383;50.830;7.210;2023-05-09T08:57:21;100598.09;;;21.25;62.79
12636;BME280;6383;50.830;7.210;2023-05-09T08:59:50;100603.34;;;21.30;62.31
12636;BME280;6383;50.830;7.210;2023-05-09T09:02:19;100595.41;;;21.28;62.34
12636;BME280;6383;50.830;7.210;2023-05-09T09:04:47;100601.38;;;21.30;63.21
12636;BME280;6383;50.830;7.210;2023-05-09T09:07:17;100593.50;;;21.32;62.47
12636;BME280;6383;50.830;7.210;2023-05-09T09:09:47;100592.75;;;21.35;63.03
12636;BME280;6383;50.830;7.210;2023-05-09T09:12:17;100583.69;;;21.38;62.94
12636;BME280;6383;50.830;7.210;2023-05-09T09:14:51;100581.41;;;21.44;62.79
12636;BME280;6383;50.830;7.210;2023-05-09T09:17:20;100578.25;;;21.45;62.56
12636;BME280;6383;50.830;7.210;2023-05-09T09:19:55;100567.19;;;21.45;61.73
12636;BME280;6383;50.830;7.210;2023-05-09T09:22:31;100570.00;;;21.49;63.24
12636;BME280;6383;50.830;7.210;2023-05-09T09:24:59;100563.31;;;21.50;61.52
12636;BME280;6383;50.830;7.210;2023-05-09T09:27:28;100562.53;;;21.53;62.20
12636;BME280;6383;50.830;7.210;2023-05-09T09:30:05;100563.31;;;21.54;61.45
12636;BME280;6383;50.830;7.210;2023-05-09T09:32:33;100560.63;;;21.57;61.47
12636;BME280;6383;50.830;7.210;2023-05-09T09:35:05;100560.66;;;21.61;60.37
12636;BME280;6383;50.830;7.210;2023-05-09T09:37:36;100552.00;;;21.62;61.08
12636;BME280;6383;50.830;7.210;2023-05-09T09:40:07;100547.25;;;21.63;59.78
12636;BME280;6383;50.830;7.210;2023-05-09T09:42:40;100550.00;;;21.63;60.44
12636;BME280;6383;50.830;7.210;2023-05-09T09:45:10;100545.69;;;21.65;60.82
12636;BME280;6383;50.830;7.210;2023-05-09T09:47:39;100540.16;;;21.65;60.66
12636;BME280;6383;50.830;7.210;2023-05-09T09:50:11;100544.56;;;21.70;61.26
12636;BME280;6383;50.830;7.210;2023-05-09T09:52:48;100535.56;;;21.76;60.95
12636;BME280;6383;50.830;7.210;2023-05-09T09:55:19;100530.81;;;21.77;58.86
12636;BME280;6383;50.830;7.210;2023-05-09T09:57:49;100526.13;;;21.81;58.66
12636;BME280;6383;50.830;7.210;2023-05-09T10:00:24;100526.50;;;21.83;58.71
12636;BME280;6383;50.830;7.210;2023-05-09T10:02:53;100522.63;;;21.88;57.91
12636;BME280;6383;50.830;7.210;2023-05-09T10:05:24;100513.94;;;21.89;56.53
12636;BME280;6383;50.830;7.210;2023-05-09T10:07:55;100514.78;;;21.97;57.63
12636;BME280;6383;50.830;7.210;2023-05-09T10:10:27;100510.59;;;22.06;56.79
12636;BME280;6383;50.830;7.210;2023-05-09T10:12:57;100500.38;;;22.14;57.00
12636;BME280;6383;50.830;7.210;2023-05-09T10:15:27;100499.28;;;22.22;57.40
12636;BME280;6383;50.830;7.210;2023-05-09T10:17:59;100498.13;;;22.27;58.18
12636;BME280;6383;50.830;7.210;2023-05-09T10:20:30;100498.16;;;22.30;57.34
12636;BME280;6383;50.830;7.210;2023-05-09T10:23:01;100491.84;;;22.33;58.09
12636;BME280;6383;50.830;7.210;2023-05-09T10:25:37;100492.28;;;22.35;56.89
12636;BME280;6383;50.830;7.210;2023-05-09T10:28:10;100485.53;;;22.33;57.10
12636;BME280;6383;50.830;7.210;2023-05-09T10:30:49;100490.25;;;22.32;56.26
12636;BME280;6383;50.830;7.210;2023-05-09T10:33:25;100482.75;;;22.33;56.54
12636;BME280;6383;50.830;7.210;2023-05-09T10:35:57;100488.72;;;22.35;56.23
12636;BME280;6383;50.830;7.210;2023-05-09T10:38:29;100474.03;;;22.34;57.81
12636;BME280;6383;50.830;7.210;2023-05-09T10:40:59;100476.03;;;22.34;58.38
12636;BME280;6383;50.830;7.210;2023-05-09T10:43:28;100468.88;;;22.33;57.17
12636;BME280;6383;50.830;7.210;2023-05-09T10:45:58;100472.06;;;22.35;57.62
12636;BME280;6383;50.830;7.210;2023-05-09T10:48:27;100456.66;;;22.37;55.67
12636;BME280;6383;50.830;7.210;2023-05-09T10:50:55;100457.06;;;22.39;56.34
12636;BME280;6383;50.830;7.210;2023-05-09T10:53:23;100449.56;;;22.43;58.01
12636;BME280;6383;50.830;7.210;2023-05-09T10:56:21;100438.13;;;22.48;57.44
12636;BME280;6383;50.830;7.210;2023-05-09T10:58:50;100437.34;;;22.51;57.00
12636;BME280;6383;50.830;7.210;2023-05-09T11:01:30;100428.25;;;22.51;56.08
12636;BME280;6383;50.830;7.210;2023-05-09T11:04:07;100427.81;;;22.49;55.65
12636;BME280;6383;50.830;7.210;2023-05-09T11:06:55;100422.72;;;22.58;57.75
12636;BME280;6383;50.830;7.210;2023-05-09T11:09:26;100422.38;;;22.63;55.04
12636;BME280;6383;50.830;7.210;2023-05-09T11:11:59;100416.47;;;22.68;55.08
12636;BME280;6383;50.830;7.210;2023-05-09T11:14:37;100404.19;;;22.73;54.15
12636;BME280;6383;50.830;7.210;2023-05-09T11:17:09;100404.25;;;22.76;53.16
12636;BME280;6383;50.830;7.210;2023-05-09T11:19:57;100404.69;;;22.78;53.58
12636;BME280;6383;50.830;7.210;2023-05-09T11:22:28;100390.44;;;22.83;52.84
12636;BME280;6383;50.830;7.210;2023-05-09T11:25:01;100389.66;;;22.86;52.99
12636;BME280;6383;50.830;7.210;2023-05-09T11:27:37;100393.66;;;22.93;52.24
12636;BME280;6383;50.830;7.210;2023-05-09T11:30:07;100388.16;;;23.00;53.45
12636;BME280;6383;50.830;7.210;2023-05-09T11:32:41;100374.28;;;23.03;51.76
12636;BME280;6383;50.830;7.210;2023-05-09T11:35:10;100367.56;;;23.08;53.19
12636;BME280;6383;50.830;7.210;2023-05-09T11:37:45;100364.81;;;23.11;52.34
12636;BME280;6383;50.830;7.210;2023-05-09T11:40:16;100357.69;;;23.14;52.11
12636;BME280;6383;50.830;7.210;2023-05-09T11:42:48;100357.69;;;23.14;51.69
12636;BME280;6383;50.830;7.210;2023-05-09T11:45:18;100356.50;;;23.18;52.48
12636;BME280;6383;50.830;7.210;2023-05-09T11:47:53;100349.78;;;23.23;53.09
12636;BME280;6383;50.830;7.210;2023-05-09T11:50:23;100345.81;;;23.24;50.37
12636;BME280;6383;50.830;7.210;2023-05-09T11:52:52;100339.88;;;23.26;50.75
12636;BME280;6383;50.830;7.210;2023-05-09T11:55:22;100343.06;;;23.28;49.85
12636;BME280;6383;50.830;7.210;2023-05-09T11:57:53;100332.34;;;23.33;50.08
12636;BME280;6383;50.830;7.210;2023-05-09T12:00:24;100332.75;;;23.35;48.63
12636;BME280;6383;50.830;7.210;2023-05-09T12:02:53;100328.00;;;23.36;49.68
12636;BME280;6383;50.830;7.210;2023-05-09T12:05:22;100326.41;;;23.35;48.27
12636;BME280;6383;50.830;7.210;2023-05-09T12:07:51;100323.63;;;23.31;48.76
12636;BME280;6383;50.830;7.210;2023-05-09T12:10:19;100319.66;;;23.36;49.60
12636;BME280;6383;50.830;7.210;2023-05-09T12:12:51;100318.09;;;23.38;49.77
12636;BME280;6383;50.830;7.210;2023-05-09T12:15:23;100312.16;;;23.40;50.33
12636;BME280;6383;50.830;7.210;2023-05-09T12:18:05;100312.97;;;23.44;49.48
12636;BME280;6383;50.830;7.210;2023-05-09T12:20:42;100301.84;;;23.47;51.52
12636;BME280;6383;50.830;7.210;2023-05-09T12:23:12;100283.22;;;23.51;48.95
12636;BME280;6383;50.830;7.210;2023-05-09T12:25:54;100299.50;;;23.57;49.77
12636;BME280;6383;50.830;7.210;2023-05-09T12:28:25;100291.16;;;23.60;47.79
12636;BME280;6383;50.830;7.210;2023-05-09T12:30:56;100291.97;;;23.64;48.60
12636;BME280;6383;50.830;7.210;2023-05-09T12:33:26;100280.47;;;23.66;49.26
12636;BME280;6383;50.830;7.210;2023-05-09T12:36:04;100282.47;;;23.69;49.10
12636;BME280;6383;50.830;7.210;2023-05-09T12:38:33;100281.66;;;23.72;50.14
12636;BME280;6383;50.830;7.210;2023-05-09T12:41:03;100266.97;;;23.75;50.21
12636;BME280;6383;50.830;7.210;2023-05-09T12:43:33;100272.16;;;23.73;48.53
12636;BME280;6383;50.830;7.210;2023-05-09T12:46:04;100263.81;;;23.73;49.41
12636;BME280;6383;50.830;7.210;2023-05-09T12:48:34;100259.03;;;23.73;49.52
12636;BME280;6383;50.830;7.210;2023-05-09T12:51:05;100272.50;;;23.75;49.21
12636;BME280;6383;50.830;7.210;2023-05-09T12:53:37;100259.84;;;23.70;48.20
12636;BME280;6383;50.830;7.210;2023-05-09T12:56:11;100259.44;;;23.72;47.48
12636;BME280;6383;50.830;7.210;2023-05-09T12:58:47;100246.75;;;23.74;48.19
12636;BME280;6383;50.830;7.210;2023-05-09T13:01:17;100249.91;;;23.80;49.05
12636;BME280;6383;50.830;7.210;2023-05-09T13:03:50;100242.75;;;23.82;48.43
12636;BME280;6383;50.830;7.210;2023-05-09T13:06:18;100241.16;;;23.85;48.05
12636;BME280;6383;50.830;7.210;2023-05-09T13:08:56;100245.13;;;23.84;47.71
12636;BME280;6383;50.830;7.210;2023-05-09T13:11:25;100240.78;;;23.83;48.83
12636;BME280;6383;50.830;7.210;2023-05-09T13:13:53;100232.03;;;23.84;48.40
12636;BME280;6383;50.830;7.210;2023-05-09T13:16:24;100232.44;;;23.83;48.62